Uman, Ukraine
Current Conditions -  °F | °C
As of 12:00 AM on Sunday 23 Nov 2014 (Local Time) from UKKK Reporting Station
Clear Clear  
Wind Chill: 25°   Ceiling: Unl
Heat Index: 30°   Visibility: 6mi
Dew Point: 23°   Wind: 4mph
Humidity: 75%   Direction: 110°ESE
Pressure: 30.36"   Gusts: NA
Location:  48.75°N, 30.22°E
Report Text: UKKK 222100Z 11002MPS 9000 NSC M01/M05 Q1028 08190060 NOSIG
Loading
Personal Weather Stations






























Interactive Weather Map New forecast layout! Learn more

10-Day Weather Forecast

Advertisements
Track Severe Weather on mobile